SARL/AOL METAR and TAF weather

Enter ICAO airport designator
Station Type Date Time Source
SARL METAR 2022/05/23 15:00 UTC NOAA

SARL 231500Z 09008KT CAVOK 20/13 Q1017


Station Type Date Time Source
SARL Decoded METAR 2022/05/23 15:00 UTC NOAA

Paso De Los Libres Aerodrome, Argentina (SARL) 29-41S 057-09W 70M
May 23, 2022 - 11:00 AM EDT / 2022.05.23 1500 UTC
Wind: from the E (090 degrees) at 9 MPH (8 KT):0
Visibility: greater than 7 mile(s):0
Temperature: 68 F (20 C)
Dew Point: 55 F (13 C)
Relative Humidity: 64%
Pressure (altimeter): 30.03 in. Hg (1017 hPa)
ob: SARL 231500Z 09008KT CAVOK 20/13 Q1017
cycle: 15

Station Type Date Time Source
SARL TAF UTC NOAA

Error!

Example: see airport list